sensor_id;sensor_type;location;lat;lon;timestamp;P1;durP1;ratioP1;P2;durP2;ratioP2
18806;SDS011;9531;52.030;4.380;2022-07-24T00:01:23;310.92;;;135.93;;
18806;SDS011;9531;52.030;4.380;2022-07-24T00:03:50;381.48;;;217.10;;
18806;SDS011;9531;52.030;4.380;2022-07-24T00:06:17;974.33;;;546.90;;
18806;SDS011;9531;52.030;4.380;2022-07-24T00:08:46;146.30;;;41.25;;
18806;SDS011;9531;52.030;4.380;2022-07-24T00:11:13;1108.85;;;596.72;;
18806;SDS011;9531;52.030;4.380;2022-07-24T00:13:40;473.98;;;273.15;;
18806;SDS011;9531;52.030;4.380;2022-07-24T00:16:08;492.33;;;291.13;;
18806;SDS011;9531;52.030;4.380;2022-07-24T00:18:35;1021.80;;;569.88;;
18806;SDS011;9531;52.030;4.380;2022-07-24T00:21:02;133.00;;;40.85;;
18806;SDS011;9531;52.030;4.380;2022-07-24T00:23:30;1401.88;;;590.88;;
18806;SDS011;9531;52.030;4.380;2022-07-24T00:25:58;153.15;;;63.03;;
18806;SDS011;9531;52.030;4.380;2022-07-24T00:28:26;1211.30;;;676.95;;
18806;SDS011;9531;52.030;4.380;2022-07-24T00:30:53;284.15;;;126.32;;
18806;SDS011;9531;52.030;4.380;2022-07-24T00:33:20;800.00;;;569.45;;
18806;SDS011;9531;52.030;4.380;2022-07-24T00:35:47;131.25;;;38.97;;
18806;SDS011;9531;52.030;4.380;2022-07-24T00:38:15;389.58;;;247.70;;
18806;SDS011;9531;52.030;4.380;2022-07-24T00:40:42;556.13;;;341.75;;
18806;SDS011;9531;52.030;4.380;2022-07-24T00:43:11;711.40;;;519.60;;
18806;SDS011;9531;52.030;4.380;2022-07-24T00:45:39;1469.30;;;733.50;;
18806;SDS011;9531;52.030;4.380;2022-07-24T00:48:06;1149.70;;;675.20;;
18806;SDS011;9531;52.030;4.380;2022-07-24T00:50:35;237.38;;;125.97;;
18806;SDS011;9531;52.030;4.380;2022-07-24T00:53:02;222.95;;;93.70;;
18806;SDS011;9531;52.030;4.380;2022-07-24T00:55:29;181.30;;;81.35;;
18806;SDS011;9531;52.030;4.380;2022-07-24T00:57:57;710.30;;;506.63;;
18806;SDS011;9531;52.030;4.380;2022-07-24T01:00:25;1317.75;;;707.05;;
18806;SDS011;9531;52.030;4.380;2022-07-24T01:02:53;1432.20;;;699.85;;
18806;SDS011;9531;52.030;4.380;2022-07-24T01:05:21;216.77;;;115.95;;
18806;SDS011;9531;52.030;4.380;2022-07-24T01:07:49;939.63;;;662.03;;
18806;SDS011;9531;52.030;4.380;2022-07-24T01:10:16;1207.25;;;711.03;;
18806;SDS011;9531;52.030;4.380;2022-07-24T01:12:46;1273.07;;;724.35;;
18806;SDS011;9531;52.030;4.380;2022-07-24T01:15:14;1661.63;;;744.58;;
18806;SDS011;9531;52.030;4.380;2022-07-24T01:17:43;834.55;;;500.25;;
18806;SDS011;9531;52.030;4.380;2022-07-24T01:20:10;231.63;;;145.73;;
18806;SDS011;9531;52.030;4.380;2022-07-24T01:22:39;215.75;;;127.95;;
18806;SDS011;9531;52.030;4.380;2022-07-24T01:25:07;1080.97;;;626.53;;
18806;SDS011;9531;52.030;4.380;2022-07-24T01:27:34;248.43;;;94.40;;
18806;SDS011;9531;52.030;4.380;2022-07-24T01:30:01;916.35;;;529.20;;
18806;SDS011;9531;52.030;4.380;2022-07-24T01:32:29;1148.72;;;647.97;;
18806;SDS011;9531;52.030;4.380;2022-07-24T01:34:56;824.10;;;579.40;;
18806;SDS011;9531;52.030;4.380;2022-07-24T01:37:24;1308.20;;;715.60;;
18806;SDS011;9531;52.030;4.380;2022-07-24T01:39:52;944.85;;;605.80;;
18806;SDS011;9531;52.030;4.380;2022-07-24T01:42:20;1623.32;;;796.83;;
18806;SDS011;9531;52.030;4.380;2022-07-24T01:44:49;1255.05;;;719.75;;
18806;SDS011;9531;52.030;4.380;2022-07-24T01:47:17;143.93;;;36.25;;
18806;SDS011;9531;52.030;4.380;2022-07-24T01:49:52;546.30;;;377.15;;
18806;SDS011;9531;52.030;4.380;2022-07-24T01:52:19;675.10;;;475.45;;
18806;SDS011;9531;52.030;4.380;2022-07-24T01:54:50;1409.20;;;796.05;;
18806;SDS011;9531;52.030;4.380;2022-07-24T01:57:18;1352.47;;;651.15;;
18806;SDS011;9531;52.030;4.380;2022-07-24T01:59:46;125.50;;;43.10;;
18806;SDS011;9531;52.030;4.380;2022-07-24T02:02:14;164.70;;;88.57;;
18806;SDS011;9531;52.030;4.380;2022-07-24T02:04:41;1964.18;;;924.42;;
18806;SDS011;9531;52.030;4.380;2022-07-24T02:07:09;936.58;;;674.50;;
18806;SDS011;9531;52.030;4.380;2022-07-24T02:09:36;127.53;;;40.63;;
18806;SDS011;9531;52.030;4.380;2022-07-24T02:12:03;158.23;;;50.03;;
18806;SDS011;9531;52.030;4.380;2022-07-24T02:14:32;1134.65;;;737.35;;
18806;SDS011;9531;52.030;4.380;2022-07-24T02:16:59;1235.30;;;766.97;;
18806;SDS011;9531;52.030;4.380;2022-07-24T02:19:27;394.02;;;262.80;;
18806;SDS011;9531;52.030;4.380;2022-07-24T02:21:54;1545.88;;;856.67;;
18806;SDS011;9531;52.030;4.380;2022-07-24T02:24:21;976.55;;;741.08;;
18806;SDS011;9531;52.030;4.380;2022-07-24T02:26:49;1695.53;;;821.50;;
18806;SDS011;9531;52.030;4.380;2022-07-24T02:29:16;1375.10;;;770.13;;
18806;SDS011;9531;52.030;4.380;2022-07-24T02:31:45;1012.00;;;626.78;;
18806;SDS011;9531;52.030;4.380;2022-07-24T02:34:12;398.40;;;252.82;;
18806;SDS011;9531;52.030;4.380;2022-07-24T02:36:39;1999.90;;;924.55;;
18806;SDS011;9531;52.030;4.380;2022-07-24T02:39:06;1853.35;;;824.60;;
18806;SDS011;9531;52.030;4.380;2022-07-24T02:41:34;426.58;;;284.98;;
18806;SDS011;9531;52.030;4.380;2022-07-24T02:44:01;1119.60;;;741.67;;
18806;SDS011;9531;52.030;4.380;2022-07-24T02:46:28;128.00;;;43.10;;
18806;SDS011;9531;52.030;4.380;2022-07-24T02:48:57;400.58;;;286.95;;
18806;SDS011;9531;52.030;4.380;2022-07-24T02:51:25;869.28;;;647.45;;
18806;SDS011;9531;52.030;4.380;2022-07-24T02:53:52;491.33;;;344.08;;
18806;SDS011;9531;52.030;4.380;2022-07-24T02:56:19;195.90;;;123.25;;
18806;SDS011;9531;52.030;4.380;2022-07-24T02:58:47;176.40;;;93.70;;
18806;SDS011;9531;52.030;4.380;2022-07-24T03:01:14;223.73;;;86.53;;
18806;SDS011;9531;52.030;4.380;2022-07-24T03:03:41;149.38;;;66.15;;
18806;SDS011;9531;52.030;4.380;2022-07-24T03:06:10;668.92;;;512.72;;
18806;SDS011;9531;52.030;4.380;2022-07-24T03:08:38;157.23;;;19.48;;
18806;SDS011;9531;52.030;4.380;2022-07-24T03:11:05;972.00;;;744.75;;
18806;SDS011;9531;52.030;4.380;2022-07-24T03:13:32;1616.18;;;958.50;;
18806;SDS011;9531;52.030;4.380;2022-07-24T03:15:59;385.42;;;275.83;;
18806;SDS011;9531;52.030;4.380;2022-07-24T03:18:26;1697.47;;;836.50;;
18806;SDS011;9531;52.030;4.380;2022-07-24T03:20:54;1314.10;;;791.40;;
18806;SDS011;9531;52.030;4.380;2022-07-24T03:23:23;584.47;;;314.13;;
18806;SDS011;9531;52.030;4.380;2022-07-24T03:25:50;434.65;;;342.23;;
18806;SDS011;9531;52.030;4.380;2022-07-24T03:28:17;244.38;;;140.98;;
18806;SDS011;9531;52.030;4.380;2022-07-24T03:30:45;307.85;;;218.55;;
18806;SDS011;9531;52.030;4.380;2022-07-24T03:33:12;310.50;;;201.25;;
18806;SDS011;9531;52.030;4.380;2022-07-24T03:35:39;197.40;;;102.35;;
18806;SDS011;9531;52.030;4.380;2022-07-24T03:38:06;791.92;;;618.85;;
18806;SDS011;9531;52.030;4.380;2022-07-24T03:40:35;245.18;;;161.73;;
18806;SDS011;9531;52.030;4.380;2022-07-24T03:43:02;678.22;;;529.25;;
18806;SDS011;9531;52.030;4.380;2022-07-24T03:45:29;289.23;;;196.63;;
18806;SDS011;9531;52.030;4.380;2022-07-24T03:47:57;687.70;;;563.97;;
18806;SDS011;9531;52.030;4.380;2022-07-24T03:50:24;1109.55;;;784.92;;
18806;SDS011;9531;52.030;4.380;2022-07-24T03:52:51;1406.30;;;813.63;;
18806;SDS011;9531;52.030;4.380;2022-07-24T03:55:19;292.60;;;190.45;;
18806;SDS011;9531;52.030;4.380;2022-07-24T03:57:47;590.60;;;463.65;;
18806;SDS011;9531;52.030;4.380;2022-07-24T04:00:15;1717.47;;;797.80;;
18806;SDS011;9531;52.030;4.380;2022-07-24T04:02:43;1779.45;;;913.40;;
18806;SDS011;9531;52.030;4.380;2022-07-24T04:05:11;600.88;;;534.20;;
18806;SDS011;9531;52.030;4.380;2022-07-24T04:07:38;710.08;;;618.38;;
18806;SDS011;9531;52.030;4.380;2022-07-24T04:10:06;1107.90;;;819.75;;
18806;SDS011;9531;52.030;4.380;2022-07-24T04:12:34;1259.40;;;819.70;;
18806;SDS011;9531;52.030;4.380;2022-07-24T04:15:04;893.70;;;710.78;;
18806;SDS011;9531;52.030;4.380;2022-07-24T04:17:32;394.90;;;209.82;;
18806;SDS011;9531;52.030;4.380;2022-07-24T04:19:59;1546.75;;;855.05;;
18806;SDS011;9531;52.030;4.380;2022-07-24T04:22:26;576.88;;;501.00;;
18806;SDS011;9531;52.030;4.380;2022-07-24T04:24:53;1486.15;;;856.13;;
18806;SDS011;9531;52.030;4.380;2022-07-24T04:27:20;1424.35;;;828.35;;
18806;SDS011;9531;52.030;4.380;2022-07-24T04:29:49;759.30;;;634.70;;
18806;SDS011;9531;52.030;4.380;2022-07-24T04:32:17;1030.50;;;663.13;;
18806;SDS011;9531;52.030;4.380;2022-07-24T04:34:44;886.55;;;177.18;;
18806;SDS011;9531;52.030;4.380;2022-07-24T04:37:12;477.63;;;348.55;;
18806;SDS011;9531;52.030;4.380;2022-07-24T04:39:39;403.00;;;293.55;;
18806;SDS011;9531;52.030;4.380;2022-07-24T04:42:06;1145.20;;;787.58;;
18806;SDS011;9531;52.030;4.380;2022-07-24T04:44:33;624.22;;;143.95;;
18806;SDS011;9531;52.030;4.380;2022-07-24T04:47:01;540.38;;;423.90;;
18806;SDS011;9531;52.030;4.380;2022-07-24T04:49:29;514.35;;;426.02;;
18806;SDS011;9531;52.030;4.380;2022-07-24T04:51:56;1076.65;;;764.03;;
18806;SDS011;9531;52.030;4.380;2022-07-24T04:54:24;872.40;;;548.70;;
18806;SDS011;9531;52.030;4.380;2022-07-24T04:56:51;1057.45;;;740.88;;
18806;SDS011;9531;52.030;4.380;2022-07-24T04:59:18;995.00;;;717.92;;
18806;SDS011;9531;52.030;4.380;2022-07-24T05:01:45;607.10;;;495.30;;
18806;SDS011;9531;52.030;4.380;2022-07-24T05:04:13;440.65;;;328.77;;
18806;SDS011;9531;52.030;4.380;2022-07-24T05:06:41;952.80;;;689.88;;
18806;SDS011;9531;52.030;4.380;2022-07-24T05:09:11;1170.03;;;785.65;;
18806;SDS011;9531;52.030;4.380;2022-07-24T05:11:38;1299.43;;;760.30;;
18806;SDS011;9531;52.030;4.380;2022-07-24T05:14:05;1114.78;;;730.90;;
18806;SDS011;9531;52.030;4.380;2022-07-24T05:16:33;320.83;;;222.60;;
18806;SDS011;9531;52.030;4.380;2022-07-24T05:19:01;1015.75;;;592.28;;
18806;SDS011;9531;52.030;4.380;2022-07-24T05:21:28;926.45;;;80.72;;
18806;SDS011;9531;52.030;4.380;2022-07-24T05:23:58;223.70;;;81.13;;
18806;SDS011;9531;52.030;4.380;2022-07-24T05:26:28;1055.50;;;683.50;;
18806;SDS011;9531;52.030;4.380;2022-07-24T05:28:57;813.72;;;556.05;;
18806;SDS011;9531;52.030;4.380;2022-07-24T05:31:25;891.47;;;507.60;;
18806;SDS011;9531;52.030;4.380;2022-07-24T05:33:52;250.95;;;161.15;;
18806;SDS011;9531;52.030;4.380;2022-07-24T05:36:20;309.77;;;212.32;;
18806;SDS011;9531;52.030;4.380;2022-07-24T05:38:47;406.10;;;253.18;;
18806;SDS011;9531;52.030;4.380;2022-07-24T05:41:16;1299.25;;;732.15;;
18806;SDS011;9531;52.030;4.380;2022-07-24T05:43:43;196.73;;;108.72;;
18806;SDS011;9531;52.030;4.380;2022-07-24T05:46:10;334.90;;;242.95;;
18806;SDS011;9531;52.030;4.380;2022-07-24T05:48:38;884.00;;;458.88;;
18806;SDS011;9531;52.030;4.380;2022-07-24T05:51:05;513.80;;;142.40;;
18806;SDS011;9531;52.030;4.380;2022-07-24T05:53:33;604.65;;;343.58;;
18806;SDS011;9531;52.030;4.380;2022-07-24T05:56:00;386.42;;;183.43;;
18806;SDS011;9531;52.030;4.380;2022-07-24T05:58:29;223.20;;;68.68;;
18806;SDS011;9531;52.030;4.380;2022-07-24T06:00:57;207.50;;;61.10;;
18806;SDS011;9531;52.030;4.380;2022-07-24T06:03:24;256.75;;;103.18;;
18806;SDS011;9531;52.030;4.380;2022-07-24T06:05:51;607.47;;;257.20;;
18806;SDS011;9531;52.030;4.380;2022-07-24T06:08:18;275.65;;;77.53;;
18806;SDS011;9531;52.030;4.380;2022-07-24T06:10:46;158.57;;;69.28;;
18806;SDS011;9531;52.030;4.380;2022-07-24T06:13:13;187.70;;;57.78;;
18806;SDS011;9531;52.030;4.380;2022-07-24T06:15:42;175.45;;;58.53;;
18806;SDS011;9531;52.030;4.380;2022-07-24T06:18:09;196.68;;;54.60;;
18806;SDS011;9531;52.030;4.380;2022-07-24T06:20:36;547.80;;;171.52;;
18806;SDS011;9531;52.030;4.380;2022-07-24T06:23:03;216.07;;;60.15;;
18806;SDS011;9531;52.030;4.380;2022-07-24T06:25:30;140.45;;;41.25;;
18806;SDS011;9531;52.030;4.380;2022-07-24T06:27:58;145.82;;;23.58;;
18806;SDS011;9531;52.030;4.380;2022-07-24T06:30:25;120.43;;;14.98;;
18806;SDS011;9531;52.030;4.380;2022-07-24T06:32:55;109.43;;;18.35;;
18806;SDS011;9531;52.030;4.380;2022-07-24T06:35:22;1269.22;;;174.98;;
18806;SDS011;9531;52.030;4.380;2022-07-24T06:37:49;216.27;;;43.72;;
18806;SDS011;9531;52.030;4.380;2022-07-24T06:40:17;250.60;;;70.20;;
18806;SDS011;9531;52.030;4.380;2022-07-24T06:42:45;422.50;;;68.60;;
18806;SDS011;9531;52.030;4.380;2022-07-24T06:45:13;259.42;;;59.95;;
18806;SDS011;9531;52.030;4.380;2022-07-24T06:47:42;317.92;;;58.03;;
18806;SDS011;9531;52.030;4.380;2022-07-24T06:50:11;138.18;;;9.82;;
18806;SDS011;9531;52.030;4.380;2022-07-24T06:52:39;350.48;;;85.15;;
18806;SDS011;9531;52.030;4.380;2022-07-24T06:55:06;196.38;;;21.95;;
18806;SDS011;9531;52.030;4.380;2022-07-24T06:57:34;190.82;;;43.95;;
18806;SDS011;9531;52.030;4.380;2022-07-24T07:00:01;176.30;;;33.75;;
18806;SDS011;9531;52.030;4.380;2022-07-24T07:02:29;431.70;;;60.95;;
18806;SDS011;9531;52.030;4.380;2022-07-24T07:04:56;799.38;;;155.88;;
18806;SDS011;9531;52.030;4.380;2022-07-24T07:07:25;1148.55;;;214.32;;
18806;SDS011;9531;52.030;4.380;2022-07-24T07:09:52;1189.57;;;165.80;;
18806;SDS011;9531;52.030;4.380;2022-07-24T07:12:19;1999.90;;;324.92;;
18806;SDS011;9531;52.030;4.380;2022-07-24T07:14:47;1275.82;;;178.68;;
18806;SDS011;9531;52.030;4.380;2022-07-24T07:17:14;1999.90;;;349.20;;
18806;SDS011;9531;52.030;4.380;2022-07-24T07:19:42;1999.90;;;396.23;;
18806;SDS011;9531;52.030;4.380;2022-07-24T07:22:09;1999.90;;;425.75;;
18806;SDS011;9531;52.030;4.380;2022-07-24T07:24:38;1999.90;;;323.27;;
18806;SDS011;9531;52.030;4.380;2022-07-24T07:27:05;1420.65;;;177.77;;
18806;SDS011;9531;52.030;4.380;2022-07-24T07:29:33;1999.90;;;422.83;;
18806;SDS011;9531;52.030;4.380;2022-07-24T07:32:00;1999.90;;;412.35;;
18806;SDS011;9531;52.030;4.380;2022-07-24T07:34:27;1526.97;;;119.38;;
18806;SDS011;9531;52.030;4.380;2022-07-24T07:36:54;1999.90;;;569.67;;
18806;SDS011;9531;52.030;4.380;2022-07-24T07:39:21;1999.90;;;468.77;;
18806;SDS011;9531;52.030;4.380;2022-07-24T07:41:50;1999.90;;;542.47;;
18806;SDS011;9531;52.030;4.380;2022-07-24T07:44:17;1999.90;;;744.80;;
18806;SDS011;9531;52.030;4.380;2022-07-24T07:46:44;1999.90;;;730.53;;
18806;SDS011;9531;52.030;4.380;2022-07-24T07:49:11;1999.90;;;796.88;;
18806;SDS011;9531;52.030;4.380;2022-07-24T07:51:39;1999.90;;;807.47;;
18806;SDS011;9531;52.030;4.380;2022-07-24T07:54:06;1999.90;;;384.25;;
18806;SDS011;9531;52.030;4.380;2022-07-24T07:56:33;1999.90;;;793.88;;
18806;SDS011;9531;52.030;4.380;2022-07-24T07:59:02;1999.90;;;563.83;;
18806;SDS011;9531;52.030;4.380;2022-07-24T08:01:29;1999.90;;;312.38;;
18806;SDS011;9531;52.030;4.380;2022-07-24T08:03:56;1999.90;;;248.45;;
18806;SDS011;9531;52.030;4.380;2022-07-24T08:06:23;1999.90;;;792.45;;
18806;SDS011;9531;52.030;4.380;2022-07-24T08:08:53;1999.90;;;803.15;;
18806;SDS011;9531;52.030;4.380;2022-07-24T08:11:20;1999.90;;;808.13;;
18806;SDS011;9531;52.030;4.380;2022-07-24T08:13:47;1999.90;;;797.08;;
18806;SDS011;9531;52.030;4.380;2022-07-24T08:16:16;1999.90;;;741.28;;
18806;SDS011;9531;52.030;4.380;2022-07-24T08:18:43;1999.90;;;774.15;;
18806;SDS011;9531;52.030;4.380;2022-07-24T08:21:10;1999.90;;;830.80;;
18806;SDS011;9531;52.030;4.380;2022-07-24T08:23:40;1999.90;;;741.88;;
18806;SDS011;9531;52.030;4.380;2022-07-24T08:26:07;1999.90;;;510.58;;
18806;SDS011;9531;52.030;4.380;2022-07-24T08:28:35;1999.90;;;755.22;;
18806;SDS011;9531;52.030;4.380;2022-07-24T08:31:02;1999.90;;;850.85;;
18806;SDS011;9531;52.030;4.380;2022-07-24T08:33:30;1999.90;;;831.13;;
18806;SDS011;9531;52.030;4.380;2022-07-24T08:35:58;1999.90;;;715.85;;
18806;SDS011;9531;52.030;4.380;2022-07-24T08:38:25;1999.90;;;475.85;;
18806;SDS011;9531;52.030;4.380;2022-07-24T08:40:52;1999.90;;;656.30;;
18806;SDS011;9531;52.030;4.380;2022-07-24T08:43:20;1999.90;;;694.40;;
18806;SDS011;9531;52.030;4.380;2022-07-24T08:45:47;1999.90;;;597.53;;
18806;SDS011;9531;52.030;4.380;2022-07-24T08:48:16;1999.90;;;872.17;;
18806;SDS011;9531;52.030;4.380;2022-07-24T08:50:49;1999.90;;;857.05;;
18806;SDS011;9531;52.030;4.380;2022-07-24T08:53:19;1999.90;;;695.63;;
18806;SDS011;9531;52.030;4.380;2022-07-24T08:55:46;1999.90;;;802.88;;
18806;SDS011;9531;52.030;4.380;2022-07-24T08:58:13;1999.90;;;860.03;;
18806;SDS011;9531;52.030;4.380;2022-07-24T09:00:41;1999.90;;;890.22;;
18806;SDS011;9531;52.030;4.380;2022-07-24T09:03:08;1999.90;;;888.10;;
18806;SDS011;9531;52.030;4.380;2022-07-24T09:08:21;1999.90;;;374.23;;
18806;SDS011;9531;52.030;4.380;2022-07-24T09:10:58;1999.90;;;801.20;;
18806;SDS011;9531;52.030;4.380;2022-07-24T09:13:28;1999.90;;;677.25;;
18806;SDS011;9531;52.030;4.380;2022-07-24T09:16:17;1999.90;;;842.45;;
18806;SDS011;9531;52.030;4.380;2022-07-24T09:18:49;1999.90;;;727.78;;
18806;SDS011;9531;52.030;4.380;2022-07-24T09:21:16;1999.90;;;716.75;;
18806;SDS011;9531;52.030;4.380;2022-07-24T09:23:45;1999.90;;;843.53;;
18806;SDS011;9531;52.030;4.380;2022-07-24T09:26:13;1999.90;;;654.78;;
18806;SDS011;9531;52.030;4.380;2022-07-24T09:28:48;1999.90;;;722.35;;
18806;SDS011;9531;52.030;4.380;2022-07-24T09:31:15;1999.90;;;871.28;;
18806;SDS011;9531;52.030;4.380;2022-07-24T09:33:43;1999.90;;;765.72;;
18806;SDS011;9531;52.030;4.380;2022-07-24T09:36:11;1999.90;;;794.30;;
18806;SDS011;9531;52.030;4.380;2022-07-24T09:38:39;1999.90;;;869.25;;
18806;SDS011;9531;52.030;4.380;2022-07-24T09:41:12;1999.90;;;122.38;;
18806;SDS011;9531;52.030;4.380;2022-07-24T09:43:45;1999.90;;;815.25;;
18806;SDS011;9531;52.030;4.380;2022-07-24T09:46:12;1999.90;;;950.17;;
18806;SDS011;9531;52.030;4.380;2022-07-24T09:48:50;1999.90;;;922.97;;
18806;SDS011;9531;52.030;4.380;2022-07-24T09:51:18;1999.90;;;906.22;;
18806;SDS011;9531;52.030;4.380;2022-07-24T09:53:46;1999.90;;;852.42;;
18806;SDS011;9531;52.030;4.380;2022-07-24T09:56:16;1999.90;;;816.75;;
18806;SDS011;9531;52.030;4.380;2022-07-24T09:58:47;1999.90;;;968.60;;
18806;SDS011;9531;52.030;4.380;2022-07-24T10:01:16;1999.90;;;876.58;;
18806;SDS011;9531;52.030;4.380;2022-07-24T10:03:44;1999.90;;;871.15;;
18806;SDS011;9531;52.030;4.380;2022-07-24T10:06:12;1999.90;;;447.02;;
18806;SDS011;9531;52.030;4.380;2022-07-24T10:08:40;1999.90;;;922.45;;
18806;SDS011;9531;52.030;4.380;2022-07-24T10:11:10;1999.90;;;451.02;;
18806;SDS011;9531;52.030;4.380;2022-07-24T10:13:41;1999.90;;;941.53;;
18806;SDS011;9531;52.030;4.380;2022-07-24T10:16:25;1999.90;;;882.55;;
18806;SDS011;9531;52.030;4.380;2022-07-24T10:18:53;1999.90;;;919.05;;
18806;SDS011;9531;52.030;4.380;2022-07-24T10:21:22;1999.90;;;834.35;;
18806;SDS011;9531;52.030;4.380;2022-07-24T10:26:33;1999.90;;;954.88;;
18806;SDS011;9531;52.030;4.380;2022-07-24T10:29:05;1999.90;;;859.95;;
18806;SDS011;9531;52.030;4.380;2022-07-24T10:31:34;1999.90;;;909.45;;
18806;SDS011;9531;52.030;4.380;2022-07-24T10:34:03;1999.90;;;681.80;;
18806;SDS011;9531;52.030;4.380;2022-07-24T10:36:33;1999.90;;;936.05;;
18806;SDS011;9531;52.030;4.380;2022-07-24T10:39:03;1999.90;;;886.55;;
18806;SDS011;9531;52.030;4.380;2022-07-24T10:41:32;1999.90;;;829.78;;
18806;SDS011;9531;52.030;4.380;2022-07-24T10:44:15;1999.90;;;988.03;;
18806;SDS011;9531;52.030;4.380;2022-07-24T10:47:02;1999.90;;;983.85;;
18806;SDS011;9531;52.030;4.380;2022-07-24T10:49:38;1999.90;;;988.65;;
18806;SDS011;9531;52.030;4.380;2022-07-24T10:52:08;1999.90;;;956.33;;
18806;SDS011;9531;52.030;4.380;2022-07-24T10:54:35;1999.90;;;926.42;;
18806;SDS011;9531;52.030;4.380;2022-07-24T10:57:03;1999.90;;;767.30;;
18806;SDS011;9531;52.030;4.380;2022-07-24T10:59:33;1999.90;;;955.72;;
18806;SDS011;9531;52.030;4.380;2022-07-24T11:04:50;1999.90;;;870.08;;
18806;SDS011;9531;52.030;4.380;2022-07-24T11:07:36;1999.90;;;972.53;;
18806;SDS011;9531;52.030;4.380;2022-07-24T11:10:04;1999.90;;;918.88;;
18806;SDS011;9531;52.030;4.380;2022-07-24T11:12:33;1999.90;;;628.78;;
18806;SDS011;9531;52.030;4.380;2022-07-24T11:15:12;1999.90;;;996.85;;
18806;SDS011;9531;52.030;4.380;2022-07-24T11:18:08;1999.90;;;997.13;;
18806;SDS011;9531;52.030;4.380;2022-07-24T11:20:39;1999.90;;;949.10;;
18806;SDS011;9531;52.030;4.380;2022-07-24T11:23:18;1999.90;;;753.45;;
18806;SDS011;9531;52.030;4.380;2022-07-24T11:25:46;1999.90;;;903.55;;
18806;SDS011;9531;52.030;4.380;2022-07-24T11:28:13;1999.90;;;754.55;;
18806;SDS011;9531;52.030;4.380;2022-07-24T11:30:42;1999.90;;;981.33;;
18806;SDS011;9531;52.030;4.380;2022-07-24T11:33:10;1999.90;;;624.75;;
18806;SDS011;9531;52.030;4.380;2022-07-24T11:35:38;1999.90;;;951.80;;
18806;SDS011;9531;52.030;4.380;2022-07-24T11:38:06;1999.90;;;790.90;;
18806;SDS011;9531;52.030;4.380;2022-07-24T11:40:34;1999.90;;;948.92;;
18806;SDS011;9531;52.030;4.380;2022-07-24T11:43:03;1999.90;;;653.15;;
18806;SDS011;9531;52.030;4.380;2022-07-24T11:45:30;1999.90;;;688.83;;
18806;SDS011;9531;52.030;4.380;2022-07-24T11:47:59;1999.90;;;797.58;;
18806;SDS011;9531;52.030;4.380;2022-07-24T11:50:27;1999.90;;;580.67;;
18806;SDS011;9531;52.030;4.380;2022-07-24T11:52:56;1999.90;;;547.28;;
18806;SDS011;9531;52.030;4.380;2022-07-24T11:55:24;1999.90;;;857.15;;
18806;SDS011;9531;52.030;4.380;2022-07-24T11:57:52;1999.90;;;913.72;;
18806;SDS011;9531;52.030;4.380;2022-07-24T12:00:20;1999.90;;;623.47;;
18806;SDS011;9531;52.030;4.380;2022-07-24T12:02:48;1999.90;;;891.92;;
18806;SDS011;9531;52.030;4.380;2022-07-24T12:05:24;1999.90;;;673.47;;
18806;SDS011;9531;52.030;4.380;2022-07-24T12:07:52;1999.90;;;593.53;;
18806;SDS011;9531;52.030;4.380;2022-07-24T12:10:21;1999.90;;;839.70;;
18806;SDS011;9531;52.030;4.380;2022-07-24T12:12:49;1999.90;;;973.65;;
18806;SDS011;9531;52.030;4.380;2022-07-24T12:15:22;1999.90;;;920.78;;
18806;SDS011;9531;52.030;4.380;2022-07-24T12:17:57;1999.90;;;953.85;;
18806;SDS011;9531;52.030;4.380;2022-07-24T12:20:27;1999.90;;;976.30;;
18806;SDS011;9531;52.030;4.380;2022-07-24T12:22:55;1999.90;;;942.72;;
18806;SDS011;9531;52.030;4.380;2022-07-24T12:25:22;1999.90;;;944.47;;
18806;SDS011;9531;52.030;4.380;2022-07-24T12:27:52;1999.90;;;872.05;;
18806;SDS011;9531;52.030;4.380;2022-07-24T12:30:28;1999.90;;;777.55;;
18806;SDS011;9531;52.030;4.380;2022-07-24T12:32:57;1999.90;;;950.92;;
18806;SDS011;9531;52.030;4.380;2022-07-24T12:35:24;1999.90;;;402.75;;
18806;SDS011;9531;52.030;4.380;2022-07-24T12:37:54;1999.90;;;726.15;;
18806;SDS011;9531;52.030;4.380;2022-07-24T12:40:23;1999.90;;;805.85;;
18806;SDS011;9531;52.030;4.380;2022-07-24T12:42:57;1999.90;;;906.90;;
18806;SDS011;9531;52.030;4.380;2022-07-24T12:45:25;1999.90;;;803.60;;
18806;SDS011;9531;52.030;4.380;2022-07-24T12:48:05;1999.90;;;943.63;;
18806;SDS011;9531;52.030;4.380;2022-07-24T12:50:33;1999.90;;;958.67;;
18806;SDS011;9531;52.030;4.380;2022-07-24T12:53:03;1999.90;;;791.53;;
18806;SDS011;9531;52.030;4.380;2022-07-24T12:55:32;1999.90;;;879.38;;
18806;SDS011;9531;52.030;4.380;2022-07-24T12:57:59;1999.90;;;981.28;;
18806;SDS011;9531;52.030;4.380;2022-07-24T13:00:27;1999.90;;;794.40;;
18806;SDS011;9531;52.030;4.380;2022-07-24T13:02:54;1999.90;;;788.10;;
18806;SDS011;9531;52.030;4.380;2022-07-24T13:05:37;1999.90;;;836.63;;
18806;SDS011;9531;52.030;4.380;2022-07-24T13:08:07;1999.90;;;693.63;;
18806;SDS011;9531;52.030;4.380;2022-07-24T13:10:34;1999.90;;;899.83;;
18806;SDS011;9531;52.030;4.380;2022-07-24T13:13:02;1999.90;;;982.60;;
18806;SDS011;9531;52.030;4.380;2022-07-24T13:15:29;1999.90;;;702.00;;
18806;SDS011;9531;52.030;4.380;2022-07-24T13:17:56;1999.90;;;865.22;;
18806;SDS011;9531;52.030;4.380;2022-07-24T13:20:24;1999.90;;;890.35;;
18806;SDS011;9531;52.030;4.380;2022-07-24T13:22:51;1999.90;;;794.78;;
18806;SDS011;9531;52.030;4.380;2022-07-24T13:25:19;1999.90;;;700.65;;
18806;SDS011;9531;52.030;4.380;2022-07-24T13:27:47;1999.90;;;786.85;;
18806;SDS011;9531;52.030;4.380;2022-07-24T13:30:15;1999.90;;;938.47;;
18806;SDS011;9531;52.030;4.380;2022-07-24T13:32:42;1999.90;;;945.53;;
18806;SDS011;9531;52.030;4.380;2022-07-24T13:35:10;1999.90;;;561.47;;
18806;SDS011;9531;52.030;4.380;2022-07-24T13:37:37;1999.90;;;546.47;;
18806;SDS011;9531;52.030;4.380;2022-07-24T13:40:05;1999.90;;;889.88;;
18806;SDS011;9531;52.030;4.380;2022-07-24T13:42:34;1999.90;;;570.38;;
18806;SDS011;9531;52.030;4.380;2022-07-24T13:45:01;1999.90;;;653.85;;
18806;SDS011;9531;52.030;4.380;2022-07-24T13:47:28;1999.90;;;815.70;;
18806;SDS011;9531;52.030;4.380;2022-07-24T13:49:56;1999.90;;;689.95;;
18806;SDS011;9531;52.030;4.380;2022-07-24T13:52:23;1999.90;;;887.15;;
18806;SDS011;9531;52.030;4.380;2022-07-24T13:54:50;1999.90;;;541.50;;
18806;SDS011;9531;52.030;4.380;2022-07-24T13:57:17;1999.90;;;897.28;;
18806;SDS011;9531;52.030;4.380;2022-07-24T13:59:46;1999.90;;;755.63;;
18806;SDS011;9531;52.030;4.380;2022-07-24T14:02:14;1999.90;;;680.03;;
18806;SDS011;9531;52.030;4.380;2022-07-24T14:04:42;1999.90;;;903.05;;
18806;SDS011;9531;52.030;4.380;2022-07-24T14:07:09;1999.90;;;957.05;;
18806;SDS011;9531;52.030;4.380;2022-07-24T14:09:36;1999.90;;;969.50;;
18806;SDS011;9531;52.030;4.380;2022-07-24T14:12:04;1999.90;;;915.00;;
18806;SDS011;9531;52.030;4.380;2022-07-24T14:14:31;1999.90;;;722.08;;
18806;SDS011;9531;52.030;4.380;2022-07-24T14:17:00;1999.90;;;765.45;;
18806;SDS011;9531;52.030;4.380;2022-07-24T14:19:27;1999.90;;;735.35;;